Time;durP1;ratioP1;P1;durP2;ratioP2;P2;SDS_P1;SDS_P2;PMS_P1;PMS_P2;Temp;Humidity;BMP_temperature;BMP_pressure;BME280_temperature;BME280_humidity;BME280_pressure;Samples;Min_cycle;Max_cycle;Signal;HPM_P1;HPM_P2
2023/04/27 00:00:44;;;;;;;6.93;4.93;;;;;;;;;;4988275;28;20046;-75
2023/04/27 00:03:11;;;;;;;7.55;4.75;;;;;;;;;;4995983;28;20046;-75
2023/04/27 00:05:37;;;;;;;11.52;5.13;;;;;;;;;;4994683;28;20096;-75
2023/04/27 00:08:06;;;;;;;7.47;4.80;;;;;;;;;;4989873;28;20125;-75
2023/04/27 00:10:32;;;;;;;9.77;4.80;;;;;;;;;;4992114;28;20046;-74
2023/04/27 00:12:58;;;;;;;8.75;4.95;;;;;;;;;;4994440;28;20046;-75
2023/04/27 00:15:24;;;;;;;7.30;4.90;;;;;;;;;;4995114;28;20096;-75
2023/04/27 00:17:50;;;;;;;7.75;4.95;;;;;;;;;;4995600;28;20121;-75
2023/04/27 00:20:17;;;;;;;7.05;4.80;;;;;;;;;;4994760;28;20117;-75
2023/04/27 00:22:44;;;;;;;7.90;4.68;;;;;;;;;;4994990;28;20046;-74
2023/04/27 00:25:10;;;;;;;6.93;4.47;;;;;;;;;;4994823;28;20493;-75
2023/04/27 00:27:36;;;;;;;7.35;5.10;;;;;;;;;;4996082;28;20039;-75
2023/04/27 00:30:03;;;;;;;6.50;4.50;;;;;;;;;;4996615;28;20042;-74
2023/04/27 00:32:29;;;;;;;6.35;4.47;;;;;;;;;;4998031;28;20536;-74
2023/04/27 00:34:55;;;;;;;8.70;4.50;;;;;;;;;;4995863;28;20089;-74
2023/04/27 00:37:21;;;;;;;6.90;4.57;;;;;;;;;;4994337;28;20049;-74
2023/04/27 00:39:47;;;;;;;6.78;4.72;;;;;;;;;;4995395;28;20073;-75
2023/04/27 00:42:16;;;;;;;7.47;4.80;;;;;;;;;;4995408;28;20042;-75
2023/04/27 00:44:42;;;;;;;6.32;4.53;;;;;;;;;;4994438;28;20064;-74
2023/04/27 00:47:09;;;;;;;6.22;4.53;;;;;;;;;;4994479;28;20404;-74
2023/04/27 00:49:36;;;;;;;7.25;4.43;;;;;;;;;;4994828;28;20061;-75
2023/04/27 00:52:02;;;;;;;8.75;4.85;;;;;;;;;;4994373;28;20130;-75
2023/04/27 00:54:28;;;;;;;8.25;5.07;;;;;;;;;;4995439;28;20054;-75
2023/04/27 00:56:54;;;;;;;6.20;4.45;;;;;;;;;;5010054;28;20140;-75
2023/04/27 00:59:20;;;;;;;6.47;4.50;;;;;;;;;;4994420;28;20049;-75
2023/04/27 01:01:47;;;;;;;6.22;4.43;;;;;;;;;;4997115;28;20488;-75
2023/04/27 01:04:13;;;;;;;5.82;4.38;;;;;;;;;;5014378;28;20923;-75
2023/04/27 01:06:39;;;;;;;7.63;4.57;;;;;;;;;;4997388;28;20053;-75
2023/04/27 01:09:05;;;;;;;9.27;4.55;;;;;;;;;;4996488;28;20515;-74
2023/04/27 01:11:34;;;;;;;5.75;4.70;;;;;;;;;;5014261;28;20041;-75
2023/04/27 01:14:06;;;;;;;6.63;4.20;;;;;;;;;;5014709;28;20058;-75
2023/04/27 01:16:34;;;;;;;8.55;4.38;;;;;;;;;;4996735;28;20476;-75
2023/04/27 01:19:00;;;;;;;6.65;4.25;;;;;;;;;;4996580;28;20057;-75
2023/04/27 01:21:26;;;;;;;5.50;4.45;;;;;;;;;;5013929;28;20559;-75
2023/04/27 01:23:52;;;;;;;7.43;4.57;;;;;;;;;;5014225;28;20050;-75
2023/04/27 01:26:18;;;;;;;10.00;4.70;;;;;;;;;;5014342;28;20141;-75
2023/04/27 01:28:45;;;;;;;9.60;5.00;;;;;;;;;;5013741;28;20042;-75
2023/04/27 01:31:11;;;;;;;8.82;4.75;;;;;;;;;;5012909;28;20092;-75
2023/04/27 01:33:38;;;;;;;8.32;4.53;;;;;;;;;;4995989;28;20476;-74
2023/04/27 01:36:04;;;;;;;6.88;4.95;;;;;;;;;;4989031;28;20116;-75
2023/04/27 01:38:31;;;;;;;7.40;5.03;;;;;;;;;;4979977;28;20041;-75
2023/04/27 01:41:01;;;;;;;7.10;4.60;;;;;;;;;;4980628;28;20087;-75
2023/04/27 01:43:28;;;;;;;8.40;5.05;;;;;;;;;;4996711;28;20052;-75
2023/04/27 01:45:54;;;;;;;9.30;4.97;;;;;;;;;;5014201;28;20038;-75
2023/04/27 01:48:20;;;;;;;7.20;4.88;;;;;;;;;;4996079;28;20084;-75
2023/04/27 01:50:46;;;;;;;8.38;4.85;;;;;;;;;;4995778;28;20073;-75
2023/04/27 01:53:12;;;;;;;7.03;4.78;;;;;;;;;;4994552;28;20105;-75
2023/04/27 01:55:39;;;;;;;8.73;5.00;;;;;;;;;;4992334;28;20062;-75
2023/04/27 01:58:05;;;;;;;7.68;5.50;;;;;;;;;;4995150;28;20073;-75
2023/04/27 02:00:31;;;;;;;8.82;5.20;;;;;;;;;;4995097;28;20054;-75
2023/04/27 02:02:59;;;;;;;8.10;4.88;;;;;;;;;;5011675;28;20045;-75
2023/04/27 02:05:25;;;;;;;7.22;4.68;;;;;;;;;;4996219;28;20057;-75
2023/04/27 02:07:51;;;;;;;8.00;5.28;;;;;;;;;;5011477;28;20076;-75
2023/04/27 02:10:17;;;;;;;10.07;6.40;;;;;;;;;;5011990;28;20085;-75
2023/04/27 02:12:43;;;;;;;8.32;5.60;;;;;;;;;;5013846;28;20100;-75
2023/04/27 02:15:09;;;;;;;7.32;4.97;;;;;;;;;;4995966;28;20048;-76
2023/04/27 02:17:35;;;;;;;7.78;5.50;;;;;;;;;;5012857;28;20042;-75
2023/04/27 02:20:01;;;;;;;6.85;5.13;;;;;;;;;;5013447;28;20480;-76
2023/04/27 02:22:27;;;;;;;9.13;5.53;;;;;;;;;;4995700;28;20412;-76
2023/04/27 02:24:53;;;;;;;7.28;5.18;;;;;;;;;;4995561;28;20491;-76
2023/04/27 02:27:19;;;;;;;7.15;5.15;;;;;;;;;;4992525;28;20043;-76
2023/04/27 02:29:45;;;;;;;8.68;5.32;;;;;;;;;;4988833;28;20563;-76
2023/04/27 02:32:11;;;;;;;7.10;5.05;;;;;;;;;;4978617;28;20063;-76
2023/04/27 02:34:37;;;;;;;6.72;4.88;;;;;;;;;;5013988;28;20041;-76
2023/04/27 02:37:04;;;;;;;7.03;5.00;;;;;;;;;;4980397;28;20056;-76
2023/04/27 02:39:30;;;;;;;7.60;5.20;;;;;;;;;;4979948;28;20046;-75
2023/04/27 02:41:56;;;;;;;7.32;4.93;;;;;;;;;;4995702;28;20049;-76
2023/04/27 02:44:22;;;;;;;7.57;4.72;;;;;;;;;;4995953;28;20081;-76
2023/04/27 02:46:49;;;;;;;8.20;5.40;;;;;;;;;;4976230;28;20485;-76
2023/04/27 02:49:15;;;;;;;6.95;5.15;;;;;;;;;;5011020;28;20042;-76
2023/04/27 02:51:41;;;;;;;7.22;4.60;;;;;;;;;;4995467;28;20049;-76
2023/04/27 02:54:08;;;;;;;8.52;5.15;;;;;;;;;;5013691;28;20046;-76
2023/04/27 02:56:34;;;;;;;8.88;5.20;;;;;;;;;;5013509;28;20096;-76
2023/04/27 02:59:00;;;;;;;6.68;4.78;;;;;;;;;;5004783;28;20122;-75
2023/04/27 03:01:26;;;;;;;7.57;4.60;;;;;;;;;;5011570;28;20044;-75
2023/04/27 03:03:52;;;;;;;6.43;4.22;;;;;;;;;;5001391;28;20050;-75
2023/04/27 03:06:19;;;;;;;7.22;4.40;;;;;;;;;;5004231;28;20039;-76
2023/04/27 03:08:45;;;;;;;7.72;4.63;;;;;;;;;;5012006;28;20080;-76
2023/04/27 03:11:11;;;;;;;6.90;4.43;;;;;;;;;;5014074;28;20050;-76
2023/04/27 03:13:40;;;;;;;6.97;4.40;;;;;;;;;;5001059;28;20050;-76
2023/04/27 03:16:12;;;;;;;8.07;4.65;;;;;;;;;;5015809;28;20475;-75
2023/04/27 03:18:39;;;;;;;6.97;4.32;;;;;;;;;;5014739;28;20044;-76
2023/04/27 03:21:06;;;;;;;6.38;4.38;;;;;;;;;;5016373;28;20113;-76
2023/04/27 03:23:32;;;;;;;7.47;4.63;;;;;;;;;;5016127;28;20100;-76
2023/04/27 03:25:58;;;;;;;6.85;4.72;;;;;;;;;;5016820;28;20050;-76
2023/04/27 03:28:24;;;;;;;6.70;4.82;;;;;;;;;;4999004;28;20046;-76
2023/04/27 03:30:50;;;;;;;10.10;5.32;;;;;;;;;;5016841;28;20042;-76
2023/04/27 03:33:17;;;;;;;10.57;5.57;;;;;;;;;;5018004;28;20041;-76
2023/04/27 03:35:43;;;;;;;9.00;5.35;;;;;;;;;;5020601;28;20046;-75
2023/04/27 03:38:09;;;;;;;14.00;5.82;;;;;;;;;;5019901;28;20046;-76
2023/04/27 03:40:35;;;;;;;8.73;5.53;;;;;;;;;;5016391;28;20053;-75
2023/04/27 03:43:01;;;;;;;8.57;5.75;;;;;;;;;;5016585;28;20180;-75
2023/04/27 03:45:27;;;;;;;8.43;5.50;;;;;;;;;;5016821;28;20049;-76
2023/04/27 03:47:53;;;;;;;7.85;5.43;;;;;;;;;;4998212;28;20046;-76
2023/04/27 03:50:20;;;;;;;9.07;5.70;;;;;;;;;;5015496;28;20045;-76
2023/04/27 03:52:45;;;;;;;9.80;5.95;;;;;;;;;;5015342;28;20084;-76
2023/04/27 03:55:12;;;;;;;8.60;5.78;;;;;;;;;;5015712;28;20119;-76
2023/04/27 03:57:38;;;;;;;10.90;5.45;;;;;;;;;;5015983;28;20045;-76
2023/04/27 04:00:10;;;;;;;9.98;5.82;;;;;;;;;;4997808;28;20391;-75
2023/04/27 04:02:36;;;;;;;7.80;5.30;;;;;;;;;;5012881;28;20045;-75
2023/04/27 04:05:03;;;;;;;8.75;5.72;;;;;;;;;;5013890;28;20381;-75
2023/04/27 04:07:29;;;;;;;8.25;5.45;;;;;;;;;;5015873;28;20132;-75
2023/04/27 04:09:55;;;;;;;10.50;5.93;;;;;;;;;;4997624;28;20077;-75
2023/04/27 04:12:21;;;;;;;10.77;5.93;;;;;;;;;;5016017;28;20117;-76
2023/04/27 04:14:47;;;;;;;9.48;5.90;;;;;;;;;;4998175;28;20074;-76
2023/04/27 04:17:14;;;;;;;11.52;6.50;;;;;;;;;;5015001;28;20057;-75
2023/04/27 04:19:40;;;;;;;10.70;6.07;;;;;;;;;;5014549;28;20467;-75
2023/04/27 04:22:06;;;;;;;9.93;6.50;;;;;;;;;;5014647;28;20042;-75
2023/04/27 04:24:32;;;;;;;9.77;6.00;;;;;;;;;;4997704;28;20487;-75
2023/04/27 04:26:58;;;;;;;9.90;5.93;;;;;;;;;;5015294;28;20046;-76
2023/04/27 04:29:24;;;;;;;9.32;5.95;;;;;;;;;;5015674;28;20050;-76
2023/04/27 04:31:51;;;;;;;11.43;6.13;;;;;;;;;;5014644;28;20198;-76
2023/04/27 04:34:18;;;;;;;11.43;6.80;;;;;;;;;;4997828;28;20132;-76
2023/04/27 04:36:44;;;;;;;12.48;5.90;;;;;;;;;;5015016;28;20123;-76
2023/04/27 04:39:11;;;;;;;10.88;6.75;;;;;;;;;;5014964;28;20042;-75
2023/04/27 04:41:37;;;;;;;10.15;6.50;;;;;;;;;;5013869;28;20045;-76
2023/04/27 04:44:04;;;;;;;12.32;6.30;;;;;;;;;;4996969;28;20049;-76
2023/04/27 04:46:31;;;;;;;9.80;6.35;;;;;;;;;;5014010;28;20503;-76
2023/04/27 04:48:57;;;;;;;10.38;6.30;;;;;;;;;;4997360;28;20041;-76
2023/04/27 04:51:23;;;;;;;8.52;5.90;;;;;;;;;;4997236;28;20057;-76
2023/04/27 04:53:49;;;;;;;10.50;5.90;;;;;;;;;;4996598;28;20042;-76
2023/04/27 04:56:15;;;;;;;10.05;6.20;;;;;;;;;;4997298;28;20068;-76
2023/04/27 04:58:42;;;;;;;11.00;5.90;;;;;;;;;;4996765;28;20495;-76
2023/04/27 05:01:08;;;;;;;8.32;5.78;;;;;;;;;;4981171;28;20050;-75
2023/04/27 05:03:34;;;;;;;11.00;6.28;;;;;;;;;;5014737;28;20070;-76
2023/04/27 05:06:00;;;;;;;12.38;6.53;;;;;;;;;;5014386;28;20050;-76
2023/04/27 05:08:26;;;;;;;13.02;6.55;;;;;;;;;;5014508;28;20045;-75
2023/04/27 05:10:52;;;;;;;12.88;6.53;;;;;;;;;;4983267;28;20062;-76
2023/04/27 05:13:19;;;;;;;9.00;6.43;;;;;;;;;;4996142;28;20050;-76
2023/04/27 05:15:45;;;;;;;12.23;6.50;;;;;;;;;;5014347;28;20081;-76
2023/04/27 05:18:11;;;;;;;11.38;6.78;;;;;;;;;;5014104;28;20050;-76
2023/04/27 05:20:38;;;;;;;11.95;6.57;;;;;;;;;;5014104;28;20487;-76
2023/04/27 05:23:04;;;;;;;8.73;6.53;;;;;;;;;;4979020;28;20046;-76
2023/04/27 05:25:31;;;;;;;14.45;6.97;;;;;;;;;;4996715;28;20056;-75
2023/04/27 05:27:57;;;;;;;11.60;7.00;;;;;;;;;;4996994;28;20046;-76
2023/04/27 05:30:23;;;;;;;10.48;6.75;;;;;;;;;;4989927;28;20049;-76
2023/04/27 05:32:49;;;;;;;10.40;6.72;;;;;;;;;;4992541;28;20132;-76
2023/04/27 05:35:15;;;;;;;13.70;7.32;;;;;;;;;;5013540;28;20046;-76
2023/04/27 05:37:41;;;;;;;9.48;6.30;;;;;;;;;;4993928;28;20054;-76
2023/04/27 05:40:08;;;;;;;8.93;6.13;;;;;;;;;;4979303;28;20046;-76
2023/04/27 05:42:37;;;;;;;8.93;6.18;;;;;;;;;;4996788;28;20109;-76
2023/04/27 05:45:03;;;;;;;13.40;6.40;;;;;;;;;;5012080;28;20046;-76
2023/04/27 05:47:30;;;;;;;10.57;6.10;;;;;;;;;;5012297;28;20464;-76
2023/04/27 05:49:56;;;;;;;9.95;5.57;;;;;;;;;;5012768;28;20377;-77
2023/04/27 05:52:28;;;;;;;9.57;5.50;;;;;;;;;;4996290;28;20046;-76
2023/04/27 05:54:54;;;;;;;7.38;5.55;;;;;;;;;;4976954;28;20042;-76
2023/04/27 05:57:20;;;;;;;10.75;5.28;;;;;;;;;;4999228;28;20065;-76
2023/04/27 05:59:46;;;;;;;8.88;5.53;;;;;;;;;;5005817;28;20394;-76
2023/04/27 06:02:12;;;;;;;8.70;5.00;;;;;;;;;;5006440;28;20484;-75
2023/04/27 06:04:38;;;;;;;7.30;5.03;;;;;;;;;;5003817;28;20042;-75
2023/04/27 06:07:11;;;;;;;7.63;5.10;;;;;;;;;;5006962;28;20041;-76
2023/04/27 06:09:37;;;;;;;9.13;5.20;;;;;;;;;;5001769;28;20037;-76
2023/04/27 06:12:04;;;;;;;8.85;4.78;;;;;;;;;;5009875;28;20061;-75
2023/04/27 06:14:30;;;;;;;7.63;4.53;;;;;;;;;;4996032;28;20046;-76
2023/04/27 06:16:59;;;;;;;6.30;4.72;;;;;;;;;;5013738;28;20042;-76
2023/04/27 06:19:25;;;;;;;6.63;4.40;;;;;;;;;;4993208;28;20049;-77
2023/04/27 06:21:53;;;;;;;5.82;4.38;;;;;;;;;;4974833;28;20124;-77
2023/04/27 06:24:19;;;;;;;6.68;4.68;;;;;;;;;;4992711;28;20053;-77
2023/04/27 06:26:45;;;;;;;7.88;4.68;;;;;;;;;;4979918;28;20048;-77
2023/04/27 06:29:11;;;;;;;8.40;4.63;;;;;;;;;;4992388;28;20057;-77
2023/04/27 06:31:38;;;;;;;6.38;4.63;;;;;;;;;;4994132;28;20050;-77
2023/04/27 06:34:04;;;;;;;5.63;4.53;;;;;;;;;;4993132;28;20046;-76
2023/04/27 06:36:30;;;;;;;7.00;4.78;;;;;;;;;;4992393;28;20121;-77
2023/04/27 06:38:57;;;;;;;8.05;4.65;;;;;;;;;;4993169;28;20042;-77
2023/04/27 06:41:24;;;;;;;5.55;4.38;;;;;;;;;;4980751;28;20050;-77
2023/04/27 06:43:50;;;;;;;5.63;4.22;;;;;;;;;;5019236;28;20049;-76
2023/04/27 06:46:17;;;;;;;6.22;4.20;;;;;;;;;;5021342;28;20042;-77
2023/04/27 06:48:45;;;;;;;7.18;4.10;;;;;;;;;;4981751;28;20121;-77
2023/04/27 06:51:12;;;;;;;6.97;4.20;;;;;;;;;;5009857;28;20049;-77
2023/04/27 06:53:38;;;;;;;6.10;4.10;;;;;;;;;;5016912;28;20420;-77
2023/04/27 06:56:09;;;;;;;6.22;4.18;;;;;;;;;;5011985;28;20046;-77
2023/04/27 06:58:38;;;;;;;7.07;3.67;;;;;;;;;;5014326;28;20058;-77
2023/04/27 07:01:04;;;;;;;6.70;3.63;;;;;;;;;;5016659;28;20103;-77
2023/04/27 07:03:33;;;;;;;5.53;3.50;;;;;;;;;;5017368;28;20100;-77
2023/04/27 07:06:00;;;;;;;4.47;3.28;;;;;;;;;;5017987;28;20057;-77
2023/04/27 07:08:26;;;;;;;5.93;3.63;;;;;;;;;;5014399;28;20057;-77
2023/04/27 07:10:52;;;;;;;5.93;3.47;;;;;;;;;;5010328;28;20078;-77
2023/04/27 07:13:18;;;;;;;4.47;3.45;;;;;;;;;;4997116;28;20046;-77
2023/04/27 07:15:44;;;;;;;4.40;2.70;;;;;;;;;;4979445;28;20042;-77
2023/04/27 07:18:11;;;;;;;5.57;3.15;;;;;;;;;;4997638;28;20046;-77
2023/04/27 07:20:37;;;;;;;5.85;3.30;;;;;;;;;;4997097;28;20050;-77
2023/04/27 07:23:03;;;;;;;4.63;3.70;;;;;;;;;;5006782;28;20033;-77
2023/04/27 07:25:30;;;;;;;4.68;3.05;;;;;;;;;;5014377;28;20042;-77
2023/04/27 07:27:58;;;;;;;4.82;3.30;;;;;;;;;;5016211;28;20111;-76
2023/04/27 07:30:24;;;;;;;5.10;3.10;;;;;;;;;;5016679;28;20060;-77
2023/04/27 07:32:53;;;;;;;7.40;3.33;;;;;;;;;;5016316;28;20137;-76
2023/04/27 07:35:19;;;;;;;5.30;3.15;;;;;;;;;;5016430;28;20049;-77
2023/04/27 07:37:45;;;;;;;4.80;3.03;;;;;;;;;;5008666;28;20038;-76
2023/04/27 07:40:18;;;;;;;6.90;3.63;;;;;;;;;;5016689;28;20451;-76
2023/04/27 07:42:47;;;;;;;4.25;3.03;;;;;;;;;;5014654;28;20041;-76
2023/04/27 07:45:14;;;;;;;4.47;2.97;;;;;;;;;;5011390;28;20041;-77
2023/04/27 07:47:41;;;;;;;5.72;3.33;;;;;;;;;;5003932;28;20456;-77
2023/04/27 07:50:07;;;;;;;5.57;3.30;;;;;;;;;;5013933;28;20103;-77
2023/04/27 07:52:33;;;;;;;4.38;3.10;;;;;;;;;;5013519;28;20054;-77
2023/04/27 07:54:59;;;;;;;4.53;3.17;;;;;;;;;;5015006;28;20042;-77
2023/04/27 07:57:25;;;;;;;5.90;3.15;;;;;;;;;;5016471;28;20058;-77
2023/04/27 07:59:51;;;;;;;5.07;3.00;;;;;;;;;;4994014;28;20046;-77
2023/04/27 08:02:17;;;;;;;4.60;3.10;;;;;;;;;;5015125;28;20164;-77
2023/04/27 08:04:43;;;;;;;6.25;3.00;;;;;;;;;;4979548;28;20464;-76
2023/04/27 08:07:10;;;;;;;5.07;3.35;;;;;;;;;;5014396;28;20180;-76
2023/04/27 08:09:36;;;;;;;4.57;2.75;;;;;;;;;;5012183;28;20124;-76
2023/04/27 08:12:02;;;;;;;4.97;3.13;;;;;;;;;;5005021;28;20041;-76
2023/04/27 08:14:28;;;;;;;6.88;3.47;;;;;;;;;;5003649;28;20058;-76
2023/04/27 08:16:54;;;;;;;5.50;3.92;;;;;;;;;;5004852;28;20583;-77
2023/04/27 08:19:21;;;;;;;6.05;3.20;;;;;;;;;;5013698;28;20082;-77
2023/04/27 08:21:47;;;;;;;4.53;3.60;;;;;;;;;;5007072;28;20041;-76
2023/04/27 08:24:13;;;;;;;4.38;3.20;;;;;;;;;;5014447;28;20061;-76
2023/04/27 08:26:40;;;;;;;6.90;3.47;;;;;;;;;;4997404;28;20057;-76
2023/04/27 08:29:06;;;;;;;4.85;3.50;;;;;;;;;;5014884;28;20091;-76
2023/04/27 08:31:32;;;;;;;6.63;3.55;;;;;;;;;;5001915;28;20043;-77
2023/04/27 08:33:58;;;;;;;6.10;4.15;;;;;;;;;;5014410;28;20077;-77
2023/04/27 08:36:27;;;;;;;6.22;3.33;;;;;;;;;;5014661;28;20045;-77
2023/04/27 08:38:54;;;;;;;6.50;3.80;;;;;;;;;;5008710;28;20042;-77
2023/04/27 08:41:23;;;;;;;5.22;3.42;;;;;;;;;;5014211;28;20480;-77
2023/04/27 08:43:50;;;;;;;5.07;4.00;;;;;;;;;;5005141;28;20074;-77
2023/04/27 08:46:26;;;;;;;4.05;3.42;;;;;;;;;;5002547;28;20127;-77
2023/04/27 08:48:52;;;;;;;5.47;3.90;;;;;;;;;;5013759;28;20568;-77
2023/04/27 08:51:19;;;;;;;6.57;3.88;;;;;;;;;;5013476;28;20492;-77
2023/04/27 08:53:49;;;;;;;5.82;3.92;;;;;;;;;;5010117;28;20053;-76
2023/04/27 08:56:16;;;;;;;6.47;4.22;;;;;;;;;;5004490;28;20515;-76
2023/04/27 08:58:42;;;;;;;6.32;3.80;;;;;;;;;;5014184;28;20116;-76
2023/04/27 09:01:08;;;;;;;6.93;3.95;;;;;;;;;;5004165;28;20128;-76
2023/04/27 09:03:34;;;;;;;5.55;3.70;;;;;;;;;;5010405;28;20129;-77
2023/04/27 09:06:02;;;;;;;6.68;4.13;;;;;;;;;;5011430;28;20045;-76
2023/04/27 09:08:28;;;;;;;5.97;3.75;;;;;;;;;;5014110;28;20562;-77
2023/04/27 09:10:54;;;;;;;5.47;4.05;;;;;;;;;;5007885;28;20439;-77
2023/04/27 09:13:20;;;;;;;5.07;3.50;;;;;;;;;;5013629;28;20042;-77
2023/04/27 09:15:51;;;;;;;6.70;3.80;;;;;;;;;;5013445;28;20044;-77
2023/04/27 09:18:21;;;;;;;6.85;3.55;;;;;;;;;;5014055;28;20042;-76
2023/04/27 09:20:48;;;;;;;5.82;3.88;;;;;;;;;;5011800;28;20041;-79
2023/04/27 09:23:27;;;;;;;4.85;3.47;;;;;;;;;;5017304;28;20543;-77
2023/04/27 09:25:55;;;;;;;6.75;3.50;;;;;;;;;;5015282;28;20046;-78
2023/04/27 09:28:21;;;;;;;6.10;3.60;;;;;;;;;;5002034;28;20042;-77
2023/04/27 09:30:52;;;;;;;4.57;3.70;;;;;;;;;;5005087;28;20400;-79
2023/04/27 09:33:23;;;;;;;5.43;3.50;;;;;;;;;;5012499;28;20046;-76
2023/04/27 09:35:49;;;;;;;5.80;3.97;;;;;;;;;;5006755;28;20065;-76
2023/04/27 09:38:16;;;;;;;6.18;3.85;;;;;;;;;;5014030;28;20054;-76
2023/04/27 09:40:42;;;;;;;5.65;4.07;;;;;;;;;;5009225;28;20168;-78
2023/04/27 09:43:09;;;;;;;6.28;3.50;;;;;;;;;;5009421;28;20058;-79
2023/04/27 09:45:36;;;;;;;7.40;3.97;;;;;;;;;;5005999;28;20518;-77
2023/04/27 09:48:03;;;;;;;5.00;4.05;;;;;;;;;;4993290;28;20469;-77
2023/04/27 09:50:30;;;;;;;8.00;4.20;;;;;;;;;;5006764;28;20045;-77
2023/04/27 09:52:56;;;;;;;6.90;4.00;;;;;;;;;;5014188;28;20041;-77
2023/04/27 09:55:29;;;;;;;5.43;4.10;;;;;;;;;;5014572;28;20057;-77
2023/04/27 09:58:00;;;;;;;6.30;3.80;;;;;;;;;;5018012;28;20038;-76
2023/04/27 10:00:48;;;;;;;7.75;4.57;;;;;;;;;;5017761;28;20046;-76
2023/04/27 10:03:23;;;;;;;7.75;4.13;;;;;;;;;;4998182;28;20137;-77
2023/04/27 10:06:13;;;;;;;6.10;3.95;;;;;;;;;;5001253;28;20091;-76
2023/04/27 10:08:40;;;;;;;5.97;4.00;;;;;;;;;;5008588;28;20042;-76
2023/04/27 10:11:17;;;;;;;7.25;4.43;;;;;;;;;;5001908;28;20042;-76
2023/04/27 10:13:54;;;;;;;7.18;4.10;;;;;;;;;;4998095;28;20072;-76
2023/04/27 10:16:20;;;;;;;;;;;;;;;;;;4996309;28;20048;-76
2023/04/27 10:18:54;;;;;;;6.20;4.00;;;;;;;;;;4995650;28;19921;-76
2023/04/27 10:21:21;;;;;;;6.93;4.10;;;;;;;;;;5018116;28;20048;-76
2023/04/27 10:23:48;;;;;;;7.65;4.07;;;;;;;;;;5016938;28;20117;-76
2023/04/27 10:26:24;;;;;;;6.07;4.07;;;;;;;;;;5017796;28;20042;-76
2023/04/27 10:28:50;;;;;;;;;;;;;;;;;;5018258;28;20065;-76
2023/04/27 10:31:16;;;;;;;6.95;4.05;;;;;;;;;;5017909;28;19944;-76
2023/04/27 10:33:42;;;;;;;7.50;4.00;;;;;;;;;;5017655;28;20108;-76
2023/04/27 10:36:14;;;;;;;7.28;4.40;;;;;;;;;;5017040;28;20042;-76
2023/04/27 10:38:41;;;;;;;10.13;4.35;;;;;;;;;;5008240;28;20050;-76
2023/04/27 10:41:12;;;;;;;7.03;4.10;;;;;;;;;;4999892;28;20069;-79
2023/04/27 10:43:39;;;;;;;7.50;4.68;;;;;;;;;;5021241;28;20515;-81
2023/04/27 10:46:08;;;;;;;7.32;4.50;;;;;;;;;;5011672;28;20128;-76
2023/04/27 10:48:35;;;;;;;6.80;4.95;;;;;;;;;;5017427;28;20045;-76
2023/04/27 10:51:02;;;;;;;7.32;4.30;;;;;;;;;;5016723;28;20041;-76
2023/04/27 10:53:33;;;;;;;7.00;4.30;;;;;;;;;;5016471;28;20507;-76
2023/04/27 10:55:59;;;;;;;5.93;4.88;;;;;;;;;;5014023;28;20065;-77
2023/04/27 10:58:25;;;;;;;6.97;3.97;;;;;;;;;;5016207;28;20053;-77
2023/04/27 11:00:51;;;;;;;5.82;3.97;;;;;;;;;;5016363;28;20050;-77
2023/04/27 11:03:19;;;;;;;6.63;3.85;;;;;;;;;;5015680;28;20061;-77
2023/04/27 11:05:46;;;;;;;5.40;3.22;;;;;;;;;;4998793;28;20045;-77
2023/04/27 11:08:13;;;;;;;5.45;3.53;;;;;;;;;;5017382;28;20516;-76
2023/04/27 11:10:40;;;;;;;6.20;3.58;;;;;;;;;;5016823;28;20045;-76
2023/04/27 11:13:10;;;;;;;6.22;3.53;;;;;;;;;;5015761;28;20041;-76
2023/04/27 11:15:46;;;;;;;5.70;3.92;;;;;;;;;;5016976;28;20045;-76
2023/04/27 11:18:12;;;;;;;6.65;3.90;;;;;;;;;;5015989;28;20522;-76
2023/04/27 11:20:38;;;;;;;6.93;3.95;;;;;;;;;;4992957;28;20038;-76
2023/04/27 11:23:05;;;;;;;5.00;3.67;;;;;;;;;;5009056;28;20049;-76
2023/04/27 11:25:31;;;;;;;6.32;4.30;;;;;;;;;;5016281;28;20057;-76
2023/04/27 11:27:58;;;;;;;5.80;3.75;;;;;;;;;;5015552;28;20049;-76
2023/04/27 11:30:24;;;;;;;7.30;4.00;;;;;;;;;;5015525;28;20069;-76
2023/04/27 11:32:52;;;;;;;7.10;4.60;;;;;;;;;;5016250;28;20081;-76
2023/04/27 11:35:18;;;;;;;7.55;4.35;;;;;;;;;;4998764;28;20141;-76
2023/04/27 11:37:46;;;;;;;5.55;4.20;;;;;;;;;;5015841;28;20045;-76
2023/04/27 11:40:17;;;;;;;7.10;4.22;;;;;;;;;;5006686;28;20061;-76
2023/04/27 11:42:45;;;;;;;4.97;4.03;;;;;;;;;;5015069;28;20484;-76
2023/04/27 11:45:12;;;;;;;6.13;3.53;;;;;;;;;;4983911;28;20105;-76
2023/04/27 11:47:41;;;;;;;5.38;3.53;;;;;;;;;;5015720;28;20083;-76
2023/04/27 11:50:08;;;;;;;6.43;3.78;;;;;;;;;;5002996;28;20117;-76
2023/04/27 11:52:36;;;;;;;6.45;3.85;;;;;;;;;;5012261;28;20123;-76
2023/04/27 11:55:04;;;;;;;4.88;3.78;;;;;;;;;;5014825;28;20162;-76
2023/04/27 11:57:33;;;;;;;6.25;3.67;;;;;;;;;;5015547;28;20484;-76
2023/04/27 12:00:01;;;;;;;6.07;4.05;;;;;;;;;;5016266;28;20041;-76
2023/04/27 12:02:27;;;;;;;5.43;3.65;;;;;;;;;;5015555;28;20042;-76
2023/04/27 12:04:53;;;;;;;9.50;4.20;;;;;;;;;;4977074;28;20104;-76
2023/04/27 12:07:19;;;;;;;5.95;4.03;;;;;;;;;;5012378;28;20117;-76
2023/04/27 12:09:45;;;;;;;5.88;3.83;;;;;;;;;;5013063;28;20052;-76
2023/04/27 12:12:13;;;;;;;7.13;4.07;;;;;;;;;;5012648;28;20050;-76
2023/04/27 12:14:39;;;;;;;8.15;4.10;;;;;;;;;;5005771;28;20045;-76
2023/04/27 12:17:06;;;;;;;8.50;4.28;;;;;;;;;;5014704;28;20439;-76
2023/04/27 12:19:32;;;;;;;6.72;4.40;;;;;;;;;;5014683;28;20050;-76
2023/04/27 12:21:58;;;;;;;7.32;4.13;;;;;;;;;;4997519;28;20042;-76
2023/04/27 12:24:24;;;;;;;5.03;4.38;;;;;;;;;;5014892;28;20091;-76
2023/04/27 12:26:50;;;;;;;6.28;4.25;;;;;;;;;;4997888;28;20042;-76
2023/04/27 12:29:17;;;;;;;7.80;4.10;;;;;;;;;;4981118;28;20054;-75
2023/04/27 12:31:43;;;;;;;6.88;4.18;;;;;;;;;;5014792;28;20041;-75
2023/04/27 12:34:09;;;;;;;6.13;4.28;;;;;;;;;;5015009;28;20049;-75
2023/04/27 12:36:35;;;;;;;8.18;4.30;;;;;;;;;;5014949;28;20046;-75
2023/04/27 12:39:18;;;;;;;6.68;4.60;;;;;;;;;;4997013;28;20547;-75
2023/04/27 12:41:45;;;;;;;7.40;4.88;;;;;;;;;;5000684;28;20042;-75
2023/04/27 12:44:11;;;;;;;6.15;4.20;;;;;;;;;;4998907;28;20113;-75
2023/04/27 12:46:38;;;;;;;9.32;4.70;;;;;;;;;;4990904;28;20133;-76
2023/04/27 12:49:05;;;;;;;7.03;4.55;;;;;;;;;;5015195;28;20099;-76
2023/04/27 12:51:33;;;;;;;6.13;4.35;;;;;;;;;;4999268;28;20070;-76
2023/04/27 12:53:59;;;;;;;6.43;4.20;;;;;;;;;;5013417;28;20045;-76
2023/04/27 12:56:25;;;;;;;9.57;4.78;;;;;;;;;;4990117;28;20149;-76
2023/04/27 12:58:51;;;;;;;7.70;4.43;;;;;;;;;;5006645;28;20431;-76
2023/04/27 13:01:18;;;;;;;6.30;4.22;;;;;;;;;;5013502;28;20415;-76
2023/04/27 13:03:46;;;;;;;8.32;4.07;;;;;;;;;;5014165;28;20050;-76
2023/04/27 13:06:12;;;;;;;6.38;4.15;;;;;;;;;;5007486;28;20050;-76
2023/04/27 13:08:39;;;;;;;7.60;4.18;;;;;;;;;;5009031;28;20041;-76
2023/04/27 13:11:06;;;;;;;7.05;4.18;;;;;;;;;;5014866;28;20500;-76
2023/04/27 13:13:32;;;;;;;7.45;5.25;;;;;;;;;;5015877;28;20049;-76
2023/04/27 13:15:58;;;;;;;8.45;5.63;;;;;;;;;;5017883;28;20034;-76
2023/04/27 13:18:24;;;;;;;6.93;4.47;;;;;;;;;;5015356;28;20045;-75
2023/04/27 13:20:50;;;;;;;6.40;4.78;;;;;;;;;;5014348;28;20143;-76
2023/04/27 13:23:17;;;;;;;8.65;4.88;;;;;;;;;;5008585;28;20054;-75
2023/04/27 13:25:43;;;;;;;7.97;4.68;;;;;;;;;;5012428;28;20042;-76
2023/04/27 13:28:09;;;;;;;8.63;4.80;;;;;;;;;;5014135;28;20041;-75
2023/04/27 13:30:35;;;;;;;8.23;5.03;;;;;;;;;;5013567;28;20127;-75
2023/04/27 13:33:01;;;;;;;8.05;5.32;;;;;;;;;;5011179;28;20042;-75
2023/04/27 13:35:27;;;;;;;8.30;5.22;;;;;;;;;;5014001;28;20069;-75
2023/04/27 13:37:53;;;;;;;9.65;5.00;;;;;;;;;;5014911;28;20080;-75
2023/04/27 13:40:20;;;;;;;7.03;4.70;;;;;;;;;;4998236;28;20504;-75
2023/04/27 13:42:46;;;;;;;7.72;5.22;;;;;;;;;;5001453;28;20487;-75
2023/04/27 13:45:13;;;;;;;8.18;5.55;;;;;;;;;;5012617;28;20460;-75
2023/04/27 13:47:39;;;;;;;7.35;4.93;;;;;;;;;;5009726;28;20046;-75
2023/04/27 13:50:07;;;;;;;6.93;4.95;;;;;;;;;;5009546;28;20045;-75
2023/04/27 13:52:34;;;;;;;7.00;4.97;;;;;;;;;;5013415;28;20073;-75
2023/04/27 13:55:00;;;;;;;8.95;5.35;;;;;;;;;;5012698;28;20042;-75
2023/04/27 13:57:26;;;;;;;8.27;5.10;;;;;;;;;;5010331;28;20104;-76
2023/04/27 13:59:52;;;;;;;6.72;5.15;;;;;;;;;;5009760;28;20116;-76
2023/04/27 14:02:18;;;;;;;6.90;5.07;;;;;;;;;;5011406;28;20045;-75
2023/04/27 14:04:44;;;;;;;9.10;5.60;;;;;;;;;;5013404;28;20479;-76
2023/04/27 14:07:10;;;;;;;9.00;5.35;;;;;;;;;;4992582;28;20061;-76
2023/04/27 14:09:36;;;;;;;9.50;5.45;;;;;;;;;;5010000;28;20053;-76
2023/04/27 14:12:03;;;;;;;7.93;5.05;;;;;;;;;;5013711;28;20103;-75
2023/04/27 14:14:29;;;;;;;9.15;5.30;;;;;;;;;;5012333;28;20446;-75
2023/04/27 14:16:56;;;;;;;8.60;4.63;;;;;;;;;;5009878;28;20045;-74
2023/04/27 14:19:22;;;;;;;8.35;4.68;;;;;;;;;;5001261;28;20046;-75
2023/04/27 14:21:51;;;;;;;7.20;5.05;;;;;;;;;;5009502;28;20160;-75
2023/04/27 14:24:17;;;;;;;9.50;5.78;;;;;;;;;;5017350;28;20042;-76
2023/04/27 14:26:46;;;;;;;6.50;4.78;;;;;;;;;;5008160;28;20081;-75
2023/04/27 14:29:12;;;;;;;7.20;5.10;;;;;;;;;;5013443;28;20480;-76
2023/04/27 14:31:39;;;;;;;8.93;4.65;;;;;;;;;;5011754;28;20353;-76
2023/04/27 14:34:05;;;;;;;7.72;4.78;;;;;;;;;;5013964;28;20073;-76
2023/04/27 14:36:32;;;;;;;9.85;5.68;;;;;;;;;;5011931;28;20172;-76
2023/04/27 14:38:59;;;;;;;16.35;7.20;;;;;;;;;;4988001;28;20042;-76
2023/04/27 14:41:25;;;;;;;9.98;5.28;;;;;;;;;;5012777;28;20056;-76